sensor_id;sensor_type;location;lat;lon;timestamp;P1;durP1;ratioP1;P2;durP2;ratioP2
2464;SDS011;1244;54.326;10.074;2024-01-25T00:01:16;0.43;;;0.43;;
2464;SDS011;1244;54.326;10.074;2024-01-25T00:03:41;0.40;;;0.40;;
2464;SDS011;1244;54.326;10.074;2024-01-25T00:06:07;0.50;;;0.50;;
2464;SDS011;1244;54.326;10.074;2024-01-25T00:08:33;0.40;;;0.40;;
2464;SDS011;1244;54.326;10.074;2024-01-25T00:10:59;0.50;;;0.50;;
2464;SDS011;1244;54.326;10.074;2024-01-25T00:13:26;0.40;;;0.40;;
2464;SDS011;1244;54.326;10.074;2024-01-25T00:15:51;0.40;;;0.40;;
2464;SDS011;1244;54.326;10.074;2024-01-25T00:18:17;0.47;;;0.47;;
2464;SDS011;1244;54.326;10.074;2024-01-25T00:20:42;0.40;;;0.40;;
2464;SDS011;1244;54.326;10.074;2024-01-25T00:23:08;0.20;;;0.20;;
2464;SDS011;1244;54.326;10.074;2024-01-25T00:25:33;0.40;;;0.40;;
2464;SDS011;1244;54.326;10.074;2024-01-25T00:27:59;0.40;;;0.40;;
2464;SDS011;1244;54.326;10.074;2024-01-25T00:30:25;0.30;;;0.30;;
2464;SDS011;1244;54.326;10.074;2024-01-25T00:32:50;0.35;;;0.35;;
2464;SDS011;1244;54.326;10.074;2024-01-25T00:35:16;0.30;;;0.30;;
2464;SDS011;1244;54.326;10.074;2024-01-25T00:37:42;0.30;;;0.30;;
2464;SDS011;1244;54.326;10.074;2024-01-25T00:40:08;0.40;;;0.40;;
2464;SDS011;1244;54.326;10.074;2024-01-25T00:42:38;0.40;;;0.40;;
2464;SDS011;1244;54.326;10.074;2024-01-25T00:45:07;0.30;;;0.30;;
2464;SDS011;1244;54.326;10.074;2024-01-25T00:47:33;0.30;;;0.30;;
2464;SDS011;1244;54.326;10.074;2024-01-25T00:49:59;0.30;;;0.30;;
2464;SDS011;1244;54.326;10.074;2024-01-25T00:52:25;0.30;;;0.30;;
2464;SDS011;1244;54.326;10.074;2024-01-25T00:54:50;0.30;;;0.30;;
2464;SDS011;1244;54.326;10.074;2024-01-25T00:57:16;0.20;;;0.20;;
2464;SDS011;1244;54.326;10.074;2024-01-25T00:59:42;0.20;;;0.20;;
2464;SDS011;1244;54.326;10.074;2024-01-25T01:02:10;0.30;;;0.30;;
2464;SDS011;1244;54.326;10.074;2024-01-25T01:04:37;0.20;;;0.20;;
2464;SDS011;1244;54.326;10.074;2024-01-25T01:07:04;0.30;;;0.30;;
2464;SDS011;1244;54.326;10.074;2024-01-25T01:09:29;0.30;;;0.30;;
2464;SDS011;1244;54.326;10.074;2024-01-25T01:11:55;0.30;;;0.30;;
2464;SDS011;1244;54.326;10.074;2024-01-25T01:14:20;0.33;;;0.33;;
2464;SDS011;1244;54.326;10.074;2024-01-25T01:16:46;0.37;;;0.37;;
2464;SDS011;1244;54.326;10.074;2024-01-25T01:19:12;0.30;;;0.30;;
2464;SDS011;1244;54.326;10.074;2024-01-25T01:21:37;0.30;;;0.30;;
2464;SDS011;1244;54.326;10.074;2024-01-25T01:24:06;0.53;;;0.53;;
2464;SDS011;1244;54.326;10.074;2024-01-25T01:26:31;0.30;;;0.30;;
2464;SDS011;1244;54.326;10.074;2024-01-25T01:28:57;0.20;;;0.20;;
2464;SDS011;1244;54.326;10.074;2024-01-25T01:31:22;0.40;;;0.40;;
2464;SDS011;1244;54.326;10.074;2024-01-25T01:33:48;0.30;;;0.30;;
2464;SDS011;1244;54.326;10.074;2024-01-25T01:36:13;0.30;;;0.30;;
2464;SDS011;1244;54.326;10.074;2024-01-25T01:38:39;0.30;;;0.30;;
2464;SDS011;1244;54.326;10.074;2024-01-25T01:41:05;0.20;;;0.20;;
2464;SDS011;1244;54.326;10.074;2024-01-25T01:43:30;0.30;;;0.30;;
2464;SDS011;1244;54.326;10.074;2024-01-25T01:45:57;0.30;;;0.30;;
2464;SDS011;1244;54.326;10.074;2024-01-25T01:48:30;0.40;;;0.40;;
2464;SDS011;1244;54.326;10.074;2024-01-25T01:50:55;0.30;;;0.30;;
2464;SDS011;1244;54.326;10.074;2024-01-25T01:53:21;0.30;;;0.30;;
2464;SDS011;1244;54.326;10.074;2024-01-25T01:55:47;0.30;;;0.30;;
2464;SDS011;1244;54.326;10.074;2024-01-25T01:58:13;0.30;;;0.30;;
2464;SDS011;1244;54.326;10.074;2024-01-25T02:00:39;0.30;;;0.30;;
2464;SDS011;1244;54.326;10.074;2024-01-25T02:03:07;0.30;;;0.30;;
2464;SDS011;1244;54.326;10.074;2024-01-25T02:05:32;0.30;;;0.30;;
2464;SDS011;1244;54.326;10.074;2024-01-25T02:07:58;0.30;;;0.30;;
2464;SDS011;1244;54.326;10.074;2024-01-25T02:10:23;0.20;;;0.20;;
2464;SDS011;1244;54.326;10.074;2024-01-25T02:12:49;0.30;;;0.30;;
2464;SDS011;1244;54.326;10.074;2024-01-25T02:15:15;0.30;;;0.30;;
2464;SDS011;1244;54.326;10.074;2024-01-25T02:17:40;0.30;;;0.30;;
2464;SDS011;1244;54.326;10.074;2024-01-25T02:20:06;0.27;;;0.27;;
2464;SDS011;1244;54.326;10.074;2024-01-25T02:22:32;0.30;;;0.30;;
2464;SDS011;1244;54.326;10.074;2024-01-25T02:24:58;0.30;;;0.30;;
2464;SDS011;1244;54.326;10.074;2024-01-25T02:27:23;0.30;;;0.30;;
2464;SDS011;1244;54.326;10.074;2024-01-25T02:29:49;0.30;;;0.30;;
2464;SDS011;1244;54.326;10.074;2024-01-25T02:32:14;0.20;;;0.20;;
2464;SDS011;1244;54.326;10.074;2024-01-25T02:34:40;0.20;;;0.20;;
2464;SDS011;1244;54.326;10.074;2024-01-25T02:37:05;0.20;;;0.20;;
2464;SDS011;1244;54.326;10.074;2024-01-25T02:39:31;0.30;;;0.30;;
2464;SDS011;1244;54.326;10.074;2024-01-25T02:41:56;0.20;;;0.20;;
2464;SDS011;1244;54.326;10.074;2024-01-25T02:44:22;0.30;;;0.30;;
2464;SDS011;1244;54.326;10.074;2024-01-25T02:46:47;0.23;;;0.23;;
2464;SDS011;1244;54.326;10.074;2024-01-25T02:49:13;0.30;;;0.30;;
2464;SDS011;1244;54.326;10.074;2024-01-25T02:51:38;0.20;;;0.20;;
2464;SDS011;1244;54.326;10.074;2024-01-25T02:54:04;0.30;;;0.30;;
2464;SDS011;1244;54.326;10.074;2024-01-25T02:56:29;0.30;;;0.30;;
2464;SDS011;1244;54.326;10.074;2024-01-25T02:58:59;0.30;;;0.30;;
2464;SDS011;1244;54.326;10.074;2024-01-25T03:01:26;0.30;;;0.30;;
2464;SDS011;1244;54.326;10.074;2024-01-25T03:03:51;0.30;;;0.30;;
2464;SDS011;1244;54.326;10.074;2024-01-25T03:06:17;0.30;;;0.30;;
2464;SDS011;1244;54.326;10.074;2024-01-25T03:08:42;0.30;;;0.30;;
2464;SDS011;1244;54.326;10.074;2024-01-25T03:11:08;0.40;;;0.40;;
2464;SDS011;1244;54.326;10.074;2024-01-25T03:13:33;0.30;;;0.30;;
2464;SDS011;1244;54.326;10.074;2024-01-25T03:15:59;0.30;;;0.30;;
2464;SDS011;1244;54.326;10.074;2024-01-25T03:18:25;0.30;;;0.30;;
2464;SDS011;1244;54.326;10.074;2024-01-25T03:20:50;0.30;;;0.30;;
2464;SDS011;1244;54.326;10.074;2024-01-25T03:23:16;0.30;;;0.30;;
2464;SDS011;1244;54.326;10.074;2024-01-25T03:25:42;0.30;;;0.30;;
2464;SDS011;1244;54.326;10.074;2024-01-25T03:28:07;0.30;;;0.30;;
2464;SDS011;1244;54.326;10.074;2024-01-25T03:30:34;0.30;;;0.30;;
2464;SDS011;1244;54.326;10.074;2024-01-25T03:33:00;0.30;;;0.30;;
2464;SDS011;1244;54.326;10.074;2024-01-25T03:35:25;0.20;;;0.20;;
2464;SDS011;1244;54.326;10.074;2024-01-25T03:37:51;0.30;;;0.30;;
2464;SDS011;1244;54.326;10.074;2024-01-25T03:40:16;0.30;;;0.30;;
2464;SDS011;1244;54.326;10.074;2024-01-25T03:42:42;0.30;;;0.30;;
2464;SDS011;1244;54.326;10.074;2024-01-25T03:45:07;0.30;;;0.30;;
2464;SDS011;1244;54.326;10.074;2024-01-25T03:47:33;0.40;;;0.40;;
2464;SDS011;1244;54.326;10.074;2024-01-25T03:49:59;0.20;;;0.20;;
2464;SDS011;1244;54.326;10.074;2024-01-25T03:52:25;0.30;;;0.30;;
2464;SDS011;1244;54.326;10.074;2024-01-25T03:54:50;0.30;;;0.30;;
2464;SDS011;1244;54.326;10.074;2024-01-25T03:57:16;0.20;;;0.20;;
2464;SDS011;1244;54.326;10.074;2024-01-25T03:59:41;0.30;;;0.30;;
2464;SDS011;1244;54.326;10.074;2024-01-25T04:02:07;0.30;;;0.30;;
2464;SDS011;1244;54.326;10.074;2024-01-25T04:04:33;0.30;;;0.30;;
2464;SDS011;1244;54.326;10.074;2024-01-25T04:06:59;0.30;;;0.30;;
2464;SDS011;1244;54.326;10.074;2024-01-25T04:09:24;0.20;;;0.20;;
2464;SDS011;1244;54.326;10.074;2024-01-25T04:11:50;0.30;;;0.30;;
2464;SDS011;1244;54.326;10.074;2024-01-25T04:14:15;0.30;;;0.30;;
2464;SDS011;1244;54.326;10.074;2024-01-25T04:16:41;0.30;;;0.30;;
2464;SDS011;1244;54.326;10.074;2024-01-25T04:19:06;0.30;;;0.30;;
2464;SDS011;1244;54.326;10.074;2024-01-25T04:21:32;0.30;;;0.30;;
2464;SDS011;1244;54.326;10.074;2024-01-25T04:23:57;0.23;;;0.23;;
2464;SDS011;1244;54.326;10.074;2024-01-25T04:26:23;0.40;;;0.40;;
2464;SDS011;1244;54.326;10.074;2024-01-25T04:28:49;0.20;;;0.20;;
2464;SDS011;1244;54.326;10.074;2024-01-25T04:31:14;0.40;;;0.40;;
2464;SDS011;1244;54.326;10.074;2024-01-25T04:33:40;0.30;;;0.30;;
2464;SDS011;1244;54.326;10.074;2024-01-25T04:36:05;0.30;;;0.30;;
2464;SDS011;1244;54.326;10.074;2024-01-25T04:38:31;0.40;;;0.40;;
2464;SDS011;1244;54.326;10.074;2024-01-25T04:40:57;0.30;;;0.30;;
2464;SDS011;1244;54.326;10.074;2024-01-25T04:43:22;0.30;;;0.30;;
2464;SDS011;1244;54.326;10.074;2024-01-25T04:45:48;0.30;;;0.30;;
2464;SDS011;1244;54.326;10.074;2024-01-25T04:48:13;0.30;;;0.30;;
2464;SDS011;1244;54.326;10.074;2024-01-25T04:50:39;0.30;;;0.30;;
2464;SDS011;1244;54.326;10.074;2024-01-25T04:53:04;0.30;;;0.30;;
2464;SDS011;1244;54.326;10.074;2024-01-25T04:55:30;0.30;;;0.30;;
2464;SDS011;1244;54.326;10.074;2024-01-25T04:57:55;0.30;;;0.30;;
2464;SDS011;1244;54.326;10.074;2024-01-25T05:00:21;0.30;;;0.30;;
2464;SDS011;1244;54.326;10.074;2024-01-25T05:02:47;0.30;;;0.30;;
2464;SDS011;1244;54.326;10.074;2024-01-25T05:05:14;0.30;;;0.30;;
2464;SDS011;1244;54.326;10.074;2024-01-25T05:07:40;0.40;;;0.40;;
2464;SDS011;1244;54.326;10.074;2024-01-25T05:10:06;0.30;;;0.30;;
2464;SDS011;1244;54.326;10.074;2024-01-25T05:12:31;0.30;;;0.30;;
2464;SDS011;1244;54.326;10.074;2024-01-25T05:14:57;0.30;;;0.30;;
2464;SDS011;1244;54.326;10.074;2024-01-25T05:17:23;0.30;;;0.30;;
2464;SDS011;1244;54.326;10.074;2024-01-25T05:19:48;0.30;;;0.30;;
2464;SDS011;1244;54.326;10.074;2024-01-25T05:22:14;0.30;;;0.30;;
2464;SDS011;1244;54.326;10.074;2024-01-25T05:24:40;0.30;;;0.30;;
2464;SDS011;1244;54.326;10.074;2024-01-25T05:27:05;0.30;;;0.30;;
2464;SDS011;1244;54.326;10.074;2024-01-25T05:29:31;0.30;;;0.30;;
2464;SDS011;1244;54.326;10.074;2024-01-25T05:31:56;0.30;;;0.30;;
2464;SDS011;1244;54.326;10.074;2024-01-25T05:34:22;0.30;;;0.30;;
2464;SDS011;1244;54.326;10.074;2024-01-25T05:36:48;0.40;;;0.40;;
2464;SDS011;1244;54.326;10.074;2024-01-25T05:39:14;0.30;;;0.30;;
2464;SDS011;1244;54.326;10.074;2024-01-25T05:41:39;0.30;;;0.30;;
2464;SDS011;1244;54.326;10.074;2024-01-25T05:44:05;0.30;;;0.30;;
2464;SDS011;1244;54.326;10.074;2024-01-25T05:46:31;0.30;;;0.30;;
2464;SDS011;1244;54.326;10.074;2024-01-25T05:48:56;0.30;;;0.30;;
2464;SDS011;1244;54.326;10.074;2024-01-25T05:51:22;0.30;;;0.30;;
2464;SDS011;1244;54.326;10.074;2024-01-25T05:53:47;0.20;;;0.20;;
2464;SDS011;1244;54.326;10.074;2024-01-25T05:56:13;0.30;;;0.30;;
2464;SDS011;1244;54.326;10.074;2024-01-25T05:58:38;0.30;;;0.30;;
2464;SDS011;1244;54.326;10.074;2024-01-25T06:01:04;0.30;;;0.30;;
2464;SDS011;1244;54.326;10.074;2024-01-25T06:03:29;0.30;;;0.30;;
2464;SDS011;1244;54.326;10.074;2024-01-25T06:05:55;0.30;;;0.30;;
2464;SDS011;1244;54.326;10.074;2024-01-25T06:08:21;0.30;;;0.30;;
2464;SDS011;1244;54.326;10.074;2024-01-25T06:10:47;0.40;;;0.40;;
2464;SDS011;1244;54.326;10.074;2024-01-25T06:13:12;0.30;;;0.30;;
2464;SDS011;1244;54.326;10.074;2024-01-25T06:15:38;0.33;;;0.33;;
2464;SDS011;1244;54.326;10.074;2024-01-25T06:18:04;0.30;;;0.30;;
2464;SDS011;1244;54.326;10.074;2024-01-25T06:20:29;0.40;;;0.40;;
2464;SDS011;1244;54.326;10.074;2024-01-25T06:22:55;0.33;;;0.33;;
2464;SDS011;1244;54.326;10.074;2024-01-25T06:25:21;0.30;;;0.30;;
2464;SDS011;1244;54.326;10.074;2024-01-25T06:27:47;0.30;;;0.30;;
2464;SDS011;1244;54.326;10.074;2024-01-25T06:30:13;0.30;;;0.30;;
2464;SDS011;1244;54.326;10.074;2024-01-25T06:32:39;0.30;;;0.30;;
2464;SDS011;1244;54.326;10.074;2024-01-25T06:35:05;0.30;;;0.30;;
2464;SDS011;1244;54.326;10.074;2024-01-25T06:37:31;0.30;;;0.30;;
2464;SDS011;1244;54.326;10.074;2024-01-25T06:39:56;0.40;;;0.40;;
2464;SDS011;1244;54.326;10.074;2024-01-25T06:42:22;0.30;;;0.30;;
2464;SDS011;1244;54.326;10.074;2024-01-25T06:44:47;0.30;;;0.30;;
2464;SDS011;1244;54.326;10.074;2024-01-25T06:47:13;0.40;;;0.40;;
2464;SDS011;1244;54.326;10.074;2024-01-25T06:49:39;0.40;;;0.40;;
2464;SDS011;1244;54.326;10.074;2024-01-25T06:52:05;0.40;;;0.40;;
2464;SDS011;1244;54.326;10.074;2024-01-25T06:54:30;0.30;;;0.30;;
2464;SDS011;1244;54.326;10.074;2024-01-25T06:56:56;0.30;;;0.30;;
2464;SDS011;1244;54.326;10.074;2024-01-25T06:59:22;0.50;;;0.50;;
2464;SDS011;1244;54.326;10.074;2024-01-25T07:01:48;0.30;;;0.30;;
2464;SDS011;1244;54.326;10.074;2024-01-25T07:04:14;0.30;;;0.30;;
2464;SDS011;1244;54.326;10.074;2024-01-25T07:06:39;0.30;;;0.30;;
2464;SDS011;1244;54.326;10.074;2024-01-25T07:09:05;0.20;;;0.20;;
2464;SDS011;1244;54.326;10.074;2024-01-25T07:11:31;0.30;;;0.30;;
2464;SDS011;1244;54.326;10.074;2024-01-25T07:13:57;0.30;;;0.30;;
2464;SDS011;1244;54.326;10.074;2024-01-25T07:16:22;0.30;;;0.30;;
2464;SDS011;1244;54.326;10.074;2024-01-25T07:18:48;0.20;;;0.20;;
2464;SDS011;1244;54.326;10.074;2024-01-25T07:21:14;0.20;;;0.20;;
2464;SDS011;1244;54.326;10.074;2024-01-25T07:23:40;0.30;;;0.30;;
2464;SDS011;1244;54.326;10.074;2024-01-25T07:26:06;0.30;;;0.30;;
2464;SDS011;1244;54.326;10.074;2024-01-25T07:28:31;0.30;;;0.30;;
2464;SDS011;1244;54.326;10.074;2024-01-25T07:30:57;0.30;;;0.30;;
2464;SDS011;1244;54.326;10.074;2024-01-25T07:33:22;0.30;;;0.30;;
2464;SDS011;1244;54.326;10.074;2024-01-25T07:35:48;0.20;;;0.20;;
2464;SDS011;1244;54.326;10.074;2024-01-25T07:38:16;0.30;;;0.30;;
2464;SDS011;1244;54.326;10.074;2024-01-25T07:40:42;0.30;;;0.30;;
2464;SDS011;1244;54.326;10.074;2024-01-25T07:43:08;0.27;;;0.27;;
2464;SDS011;1244;54.326;10.074;2024-01-25T07:45:33;0.30;;;0.30;;
2464;SDS011;1244;54.326;10.074;2024-01-25T07:47:59;0.30;;;0.30;;
2464;SDS011;1244;54.326;10.074;2024-01-25T07:50:25;0.30;;;0.30;;
2464;SDS011;1244;54.326;10.074;2024-01-25T07:52:50;0.30;;;0.30;;
2464;SDS011;1244;54.326;10.074;2024-01-25T07:55:16;0.30;;;0.30;;
2464;SDS011;1244;54.326;10.074;2024-01-25T07:57:42;0.20;;;0.20;;
2464;SDS011;1244;54.326;10.074;2024-01-25T08:00:07;0.30;;;0.30;;
2464;SDS011;1244;54.326;10.074;2024-01-25T08:02:34;0.30;;;0.30;;
2464;SDS011;1244;54.326;10.074;2024-01-25T08:05:08;0.30;;;0.30;;
2464;SDS011;1244;54.326;10.074;2024-01-25T08:07:35;0.30;;;0.30;;
2464;SDS011;1244;54.326;10.074;2024-01-25T08:10:01;0.30;;;0.30;;
2464;SDS011;1244;54.326;10.074;2024-01-25T08:12:29;0.30;;;0.30;;
2464;SDS011;1244;54.326;10.074;2024-01-25T08:14:55;0.30;;;0.30;;
2464;SDS011;1244;54.326;10.074;2024-01-25T08:17:20;0.30;;;0.30;;
2464;SDS011;1244;54.326;10.074;2024-01-25T08:19:46;0.20;;;0.20;;
2464;SDS011;1244;54.326;10.074;2024-01-25T08:22:11;0.30;;;0.30;;
2464;SDS011;1244;54.326;10.074;2024-01-25T08:24:40;0.30;;;0.30;;
2464;SDS011;1244;54.326;10.074;2024-01-25T08:27:06;0.30;;;0.30;;
2464;SDS011;1244;54.326;10.074;2024-01-25T08:29:32;0.30;;;0.30;;
2464;SDS011;1244;54.326;10.074;2024-01-25T08:31:58;0.30;;;0.30;;
2464;SDS011;1244;54.326;10.074;2024-01-25T08:34:23;0.30;;;0.30;;
2464;SDS011;1244;54.326;10.074;2024-01-25T08:36:49;0.30;;;0.30;;
2464;SDS011;1244;54.326;10.074;2024-01-25T08:39:14;0.30;;;0.30;;
2464;SDS011;1244;54.326;10.074;2024-01-25T08:41:41;0.30;;;0.30;;
2464;SDS011;1244;54.326;10.074;2024-01-25T08:44:07;0.30;;;0.30;;
2464;SDS011;1244;54.326;10.074;2024-01-25T08:46:33;0.30;;;0.30;;
2464;SDS011;1244;54.326;10.074;2024-01-25T08:48:59;0.20;;;0.20;;
2464;SDS011;1244;54.326;10.074;2024-01-25T08:51:25;0.20;;;0.20;;
2464;SDS011;1244;54.326;10.074;2024-01-25T08:53:51;0.30;;;0.30;;
2464;SDS011;1244;54.326;10.074;2024-01-25T08:56:17;0.30;;;0.30;;
2464;SDS011;1244;54.326;10.074;2024-01-25T08:58:42;0.30;;;0.30;;
2464;SDS011;1244;54.326;10.074;2024-01-25T09:01:08;0.20;;;0.20;;
2464;SDS011;1244;54.326;10.074;2024-01-25T09:03:33;0.30;;;0.30;;
2464;SDS011;1244;54.326;10.074;2024-01-25T09:05:59;0.20;;;0.20;;
2464;SDS011;1244;54.326;10.074;2024-01-25T09:08:30;0.20;;;0.20;;
2464;SDS011;1244;54.326;10.074;2024-01-25T09:10:56;0.20;;;0.20;;
2464;SDS011;1244;54.326;10.074;2024-01-25T09:13:21;0.30;;;0.30;;
2464;SDS011;1244;54.326;10.074;2024-01-25T09:15:46;0.30;;;0.30;;
2464;SDS011;1244;54.326;10.074;2024-01-25T09:18:12;0.20;;;0.20;;
2464;SDS011;1244;54.326;10.074;2024-01-25T09:20:38;0.20;;;0.20;;
2464;SDS011;1244;54.326;10.074;2024-01-25T09:23:03;0.20;;;0.20;;
2464;SDS011;1244;54.326;10.074;2024-01-25T09:25:29;0.30;;;0.30;;
2464;SDS011;1244;54.326;10.074;2024-01-25T09:27:54;0.20;;;0.20;;
2464;SDS011;1244;54.326;10.074;2024-01-25T09:30:22;0.20;;;0.20;;
2464;SDS011;1244;54.326;10.074;2024-01-25T09:32:47;0.20;;;0.20;;
2464;SDS011;1244;54.326;10.074;2024-01-25T09:35:13;0.20;;;0.20;;
2464;SDS011;1244;54.326;10.074;2024-01-25T09:37:39;0.20;;;0.20;;
2464;SDS011;1244;54.326;10.074;2024-01-25T09:40:05;0.20;;;0.20;;
2464;SDS011;1244;54.326;10.074;2024-01-25T09:42:31;0.20;;;0.20;;
2464;SDS011;1244;54.326;10.074;2024-01-25T09:44:57;0.20;;;0.20;;
2464;SDS011;1244;54.326;10.074;2024-01-25T09:47:24;0.20;;;0.20;;
2464;SDS011;1244;54.326;10.074;2024-01-25T09:49:49;0.20;;;0.20;;
2464;SDS011;1244;54.326;10.074;2024-01-25T09:52:15;0.20;;;0.20;;
2464;SDS011;1244;54.326;10.074;2024-01-25T09:54:41;0.20;;;0.20;;
2464;SDS011;1244;54.326;10.074;2024-01-25T09:57:15;0.20;;;0.20;;
2464;SDS011;1244;54.326;10.074;2024-01-25T09:59:44;0.20;;;0.20;;
2464;SDS011;1244;54.326;10.074;2024-01-25T10:02:10;0.20;;;0.20;;
2464;SDS011;1244;54.326;10.074;2024-01-25T10:04:36;0.20;;;0.20;;
2464;SDS011;1244;54.326;10.074;2024-01-25T10:07:02;0.20;;;0.20;;
2464;SDS011;1244;54.326;10.074;2024-01-25T10:09:28;0.20;;;0.20;;
2464;SDS011;1244;54.326;10.074;2024-01-25T10:12:02;0.20;;;0.20;;
2464;SDS011;1244;54.326;10.074;2024-01-25T10:14:28;0.20;;;0.20;;
2464;SDS011;1244;54.326;10.074;2024-01-25T10:16:53;0.20;;;0.20;;
2464;SDS011;1244;54.326;10.074;2024-01-25T10:19:20;0.20;;;0.20;;
2464;SDS011;1244;54.326;10.074;2024-01-25T10:21:45;0.20;;;0.20;;
2464;SDS011;1244;54.326;10.074;2024-01-25T10:24:11;0.20;;;0.20;;
2464;SDS011;1244;54.326;10.074;2024-01-25T10:26:38;0.20;;;0.20;;
2464;SDS011;1244;54.326;10.074;2024-01-25T10:29:05;0.20;;;0.20;;
2464;SDS011;1244;54.326;10.074;2024-01-25T10:31:31;0.20;;;0.20;;
2464;SDS011;1244;54.326;10.074;2024-01-25T10:34:01;0.20;;;0.20;;
2464;SDS011;1244;54.326;10.074;2024-01-25T10:36:26;0.20;;;0.20;;
2464;SDS011;1244;54.326;10.074;2024-01-25T10:38:52;0.20;;;0.20;;
2464;SDS011;1244;54.326;10.074;2024-01-25T10:41:19;0.20;;;0.20;;
2464;SDS011;1244;54.326;10.074;2024-01-25T10:43:45;0.20;;;0.20;;
2464;SDS011;1244;54.326;10.074;2024-01-25T10:46:11;0.20;;;0.20;;
2464;SDS011;1244;54.326;10.074;2024-01-25T10:48:37;0.20;;;0.20;;
2464;SDS011;1244;54.326;10.074;2024-01-25T10:51:03;0.20;;;0.20;;
2464;SDS011;1244;54.326;10.074;2024-01-25T10:53:33;0.20;;;0.20;;
2464;SDS011;1244;54.326;10.074;2024-01-25T10:58:29;0.20;;;0.20;;
2464;SDS011;1244;54.326;10.074;2024-01-25T11:00:56;0.20;;;0.20;;
2464;SDS011;1244;54.326;10.074;2024-01-25T11:03:29;0.17;;;0.17;;
2464;SDS011;1244;54.326;10.074;2024-01-25T11:06:07;0.20;;;0.20;;
2464;SDS011;1244;54.326;10.074;2024-01-25T11:08:34;0.20;;;0.20;;
2464;SDS011;1244;54.326;10.074;2024-01-25T11:11:03;0.20;;;0.20;;
2464;SDS011;1244;54.326;10.074;2024-01-25T11:13:36;0.20;;;0.20;;
2464;SDS011;1244;54.326;10.074;2024-01-25T11:18:50;0.20;;;0.20;;
2464;SDS011;1244;54.326;10.074;2024-01-25T11:21:29;0.20;;;0.20;;
2464;SDS011;1244;54.326;10.074;2024-01-25T11:24:16;0.20;;;0.20;;
2464;SDS011;1244;54.326;10.074;2024-01-25T11:26:46;0.20;;;0.20;;
2464;SDS011;1244;54.326;10.074;2024-01-25T11:29:16;0.20;;;0.20;;
2464;SDS011;1244;54.326;10.074;2024-01-25T11:31:43;0.20;;;0.20;;
2464;SDS011;1244;54.326;10.074;2024-01-25T11:34:10;0.20;;;0.20;;
2464;SDS011;1244;54.326;10.074;2024-01-25T11:36:36;0.20;;;0.20;;
2464;SDS011;1244;54.326;10.074;2024-01-25T11:39:02;0.20;;;0.20;;
2464;SDS011;1244;54.326;10.074;2024-01-25T11:41:28;0.20;;;0.20;;
2464;SDS011;1244;54.326;10.074;2024-01-25T11:43:55;0.20;;;0.20;;
2464;SDS011;1244;54.326;10.074;2024-01-25T11:46:21;0.20;;;0.20;;
2464;SDS011;1244;54.326;10.074;2024-01-25T11:48:47;0.20;;;0.20;;
2464;SDS011;1244;54.326;10.074;2024-01-25T11:51:12;0.20;;;0.20;;
2464;SDS011;1244;54.326;10.074;2024-01-25T11:53:38;0.20;;;0.20;;
2464;SDS011;1244;54.326;10.074;2024-01-25T11:56:04;0.20;;;0.20;;
2464;SDS011;1244;54.326;10.074;2024-01-25T11:58:33;0.20;;;0.20;;
2464;SDS011;1244;54.326;10.074;2024-01-25T12:00:59;0.20;;;0.20;;
2464;SDS011;1244;54.326;10.074;2024-01-25T12:03:27;0.10;;;0.10;;
2464;SDS011;1244;54.326;10.074;2024-01-25T12:05:53;0.20;;;0.20;;
2464;SDS011;1244;54.326;10.074;2024-01-25T12:08:19;0.10;;;0.10;;
2464;SDS011;1244;54.326;10.074;2024-01-25T12:10:44;0.10;;;0.10;;
2464;SDS011;1244;54.326;10.074;2024-01-25T12:13:10;0.10;;;0.10;;
2464;SDS011;1244;54.326;10.074;2024-01-25T12:15:35;0.10;;;0.10;;
2464;SDS011;1244;54.326;10.074;2024-01-25T12:18:01;0.10;;;0.10;;
2464;SDS011;1244;54.326;10.074;2024-01-25T12:20:27;0.10;;;0.10;;
2464;SDS011;1244;54.326;10.074;2024-01-25T12:22:53;0.10;;;0.10;;
2464;SDS011;1244;54.326;10.074;2024-01-25T12:25:19;0.10;;;0.10;;
2464;SDS011;1244;54.326;10.074;2024-01-25T12:27:45;0.10;;;0.10;;
2464;SDS011;1244;54.326;10.074;2024-01-25T12:30:14;0.10;;;0.10;;
2464;SDS011;1244;54.326;10.074;2024-01-25T12:32:40;0.10;;;0.10;;
2464;SDS011;1244;54.326;10.074;2024-01-25T12:35:06;0.10;;;0.10;;
2464;SDS011;1244;54.326;10.074;2024-01-25T12:37:33;0.20;;;0.20;;
2464;SDS011;1244;54.326;10.074;2024-01-25T12:39:58;0.10;;;0.10;;
2464;SDS011;1244;54.326;10.074;2024-01-25T12:42:23;0.20;;;0.20;;
2464;SDS011;1244;54.326;10.074;2024-01-25T12:44:52;0.10;;;0.10;;
2464;SDS011;1244;54.326;10.074;2024-01-25T12:47:19;0.10;;;0.10;;
2464;SDS011;1244;54.326;10.074;2024-01-25T12:49:45;0.20;;;0.20;;
2464;SDS011;1244;54.326;10.074;2024-01-25T12:52:11;0.20;;;0.20;;
2464;SDS011;1244;54.326;10.074;2024-01-25T12:54:38;0.20;;;0.20;;
2464;SDS011;1244;54.326;10.074;2024-01-25T12:57:04;0.13;;;0.13;;
2464;SDS011;1244;54.326;10.074;2024-01-25T12:59:29;0.20;;;0.20;;
2464;SDS011;1244;54.326;10.074;2024-01-25T13:01:55;0.20;;;0.20;;
2464;SDS011;1244;54.326;10.074;2024-01-25T13:04:21;0.20;;;0.20;;
2464;SDS011;1244;54.326;10.074;2024-01-25T13:06:47;0.20;;;0.20;;
2464;SDS011;1244;54.326;10.074;2024-01-25T13:09:13;0.10;;;0.10;;
2464;SDS011;1244;54.326;10.074;2024-01-25T13:11:40;0.17;;;0.17;;
2464;SDS011;1244;54.326;10.074;2024-01-25T13:14:06;0.10;;;0.10;;
2464;SDS011;1244;54.326;10.074;2024-01-25T13:16:32;0.10;;;0.10;;
2464;SDS011;1244;54.326;10.074;2024-01-25T13:18:57;0.10;;;0.10;;
2464;SDS011;1244;54.326;10.074;2024-01-25T13:21:23;0.13;;;0.13;;
2464;SDS011;1244;54.326;10.074;2024-01-25T13:23:49;0.20;;;0.20;;
2464;SDS011;1244;54.326;10.074;2024-01-25T13:26:14;0.20;;;0.20;;
2464;SDS011;1244;54.326;10.074;2024-01-25T13:28:40;0.20;;;0.20;;
2464;SDS011;1244;54.326;10.074;2024-01-25T13:31:05;0.10;;;0.10;;
2464;SDS011;1244;54.326;10.074;2024-01-25T13:33:31;0.20;;;0.20;;
2464;SDS011;1244;54.326;10.074;2024-01-25T13:35:56;0.10;;;0.10;;
2464;SDS011;1244;54.326;10.074;2024-01-25T13:38:22;0.20;;;0.20;;
2464;SDS011;1244;54.326;10.074;2024-01-25T13:40:48;0.20;;;0.20;;
2464;SDS011;1244;54.326;10.074;2024-01-25T13:43:15;0.20;;;0.20;;
2464;SDS011;1244;54.326;10.074;2024-01-25T13:45:41;0.20;;;0.20;;
2464;SDS011;1244;54.326;10.074;2024-01-25T13:48:06;0.20;;;0.20;;
2464;SDS011;1244;54.326;10.074;2024-01-25T13:50:32;0.20;;;0.20;;
2464;SDS011;1244;54.326;10.074;2024-01-25T13:52:57;0.20;;;0.20;;
2464;SDS011;1244;54.326;10.074;2024-01-25T13:55:23;0.20;;;0.20;;
2464;SDS011;1244;54.326;10.074;2024-01-25T13:57:48;0.20;;;0.20;;
2464;SDS011;1244;54.326;10.074;2024-01-25T14:00:14;0.20;;;0.20;;
2464;SDS011;1244;54.326;10.074;2024-01-25T14:02:40;0.20;;;0.20;;
2464;SDS011;1244;54.326;10.074;2024-01-25T14:05:09;0.20;;;0.20;;
2464;SDS011;1244;54.326;10.074;2024-01-25T14:07:38;0.30;;;0.30;;
2464;SDS011;1244;54.326;10.074;2024-01-25T14:17:20;0.20;;;0.20;;
2464;SDS011;1244;54.326;10.074;2024-01-25T14:19:46;0.20;;;0.20;;
2464;SDS011;1244;54.326;10.074;2024-01-25T14:22:12;0.30;;;0.30;;
2464;SDS011;1244;54.326;10.074;2024-01-25T14:24:38;0.30;;;0.30;;
2464;SDS011;1244;54.326;10.074;2024-01-25T14:27:03;0.30;;;0.30;;
2464;SDS011;1244;54.326;10.074;2024-01-25T14:29:29;0.20;;;0.20;;
2464;SDS011;1244;54.326;10.074;2024-01-25T14:31:57;0.30;;;0.30;;
2464;SDS011;1244;54.326;10.074;2024-01-25T14:34:23;0.30;;;0.30;;
2464;SDS011;1244;54.326;10.074;2024-01-25T14:36:48;0.30;;;0.30;;
2464;SDS011;1244;54.326;10.074;2024-01-25T14:39:15;0.30;;;0.30;;
2464;SDS011;1244;54.326;10.074;2024-01-25T14:41:42;0.30;;;0.30;;
2464;SDS011;1244;54.326;10.074;2024-01-25T14:44:09;0.20;;;0.20;;
2464;SDS011;1244;54.326;10.074;2024-01-25T14:46:34;0.20;;;0.20;;
2464;SDS011;1244;54.326;10.074;2024-01-25T14:49:00;0.30;;;0.30;;
2464;SDS011;1244;54.326;10.074;2024-01-25T14:51:25;0.20;;;0.20;;
2464;SDS011;1244;54.326;10.074;2024-01-25T14:53:51;0.20;;;0.20;;
2464;SDS011;1244;54.326;10.074;2024-01-25T14:56:17;0.30;;;0.30;;
2464;SDS011;1244;54.326;10.074;2024-01-25T14:58:42;0.30;;;0.30;;
2464;SDS011;1244;54.326;10.074;2024-01-25T15:01:08;0.30;;;0.30;;
2464;SDS011;1244;54.326;10.074;2024-01-25T15:03:38;0.20;;;0.20;;
2464;SDS011;1244;54.326;10.074;2024-01-25T15:06:04;0.30;;;0.30;;